Vanguard, Canada
Current Conditions -  °F | °C
As of 7:00 AM on Sunday 21 Dec 2014 (Local Time) from CYYN Reporting Station
Clear Clear  
Wind Chill: -5°   Ceiling: Unl
Heat Index: -5°   Visibility: 9mi
Dew Point: -7°   Wind: 2mph
Humidity: 86%   Direction: NA
Pressure: 29.33"   Gusts: NA
Location:  49.9°N, 107.3°W
Report Text: CYYN 211300Z AUTO VRB02KT 9SM CLR M05/M07 A2933 RMK SLP966
Loading
Personal Weather Stations






























Interactive Weather Map New forecast layout! Learn more

10-Day Weather Forecast

Advertisements
Track Severe Weather on mobile